Time;durP1;ratioP1;P1;durP2;ratioP2;P2;SDS_P1;SDS_P2;PMS_P1;PMS_P2;Temp;Humidity;BMP_temperature;BMP_pressure;BME280_temperature;BME280_humidity;BME280_pressure;Samples;Min_cycle;Max_cycle;Signal;HPM_P1;HPM_P2
2023/01/03 00:00:02;;;;;;;4.00;1.60;;;;;;;10.13;100.00;97219.59;5068779;28;20198;-78
2023/01/03 00:02:33;;;;;;;2.13;1.60;;;;;;;10.12;100.00;97230.63;5073270;28;20367;-78
2023/01/03 00:05:00;;;;;;;1.60;1.40;;;;;;;10.11;100.00;97227.09;5101516;28;20204;-78
2023/01/03 00:07:36;;;;;;;3.23;1.70;;;;;;;10.09;100.00;97228.34;5099580;28;20295;-78
2023/01/03 00:10:08;;;;;;;3.00;1.77;;;;;;;10.18;100.00;97237.91;5062302;28;20278;-78
2023/01/03 00:12:36;;;;;;;2.47;1.80;;;;;;;10.16;100.00;97239.97;5063599;28;20209;-78
2023/01/03 00:15:04;;;;;;;3.47;1.70;;;;;;;10.15;100.00;97238.28;5067368;28;20225;-78
2023/01/03 00:17:32;;;;;;;2.63;1.70;;;;;;;10.10;100.00;97240.78;5074511;28;20232;-78
2023/01/03 00:19:59;;;;;;;3.00;1.87;;;;;;;10.15;100.00;97238.28;5055909;28;20276;-78
2023/01/03 00:22:26;;;;;;;2.70;1.50;;;;;;;10.16;100.00;97230.00;5057614;28;20216;-78
2023/01/03 00:24:53;;;;;;;4.60;1.80;;;;;;;10.18;100.00;97224.44;5074953;28;20213;-78
2023/01/03 00:27:21;;;;;;;3.17;1.70;;;;;;;10.19;100.00;97235.03;5060689;28;20227;-78
2023/01/03 00:29:49;;;;;;;3.03;1.83;;;;;;;10.22;100.00;97236.47;5065006;28;20209;-78
2023/01/03 00:32:16;;;;;;;2.63;1.70;;;;;;;10.15;100.00;97243.69;5101753;28;20223;-79
2023/01/03 00:34:45;;;;;;;1.70;1.50;;;;;;;10.16;100.00;97242.66;5080263;28;20207;-78
2023/01/03 00:37:12;;;;;;;3.07;2.00;;;;;;;10.18;100.00;97229.81;5064175;28;20240;-78
2023/01/03 00:39:39;;;;;;;2.40;1.80;;;;;;;10.17;100.00;97223.59;5068784;28;20198;-78
2023/01/03 00:42:06;;;;;;;2.90;1.77;;;;;;;10.16;100.00;97224.59;5068193;28;20274;-78
2023/01/03 00:44:33;;;;;;;6.10;2.13;;;;;;;10.09;100.00;97225.63;5055347;28;20185;-79
2023/01/03 00:47:02;;;;;;;4.13;1.80;;;;;;;10.10;100.00;97220.03;5061402;28;20260;-78
2023/01/03 00:49:30;;;;;;;3.00;1.70;;;;;;;10.08;100.00;97216.69;5061220;28;20202;-78
2023/01/03 00:51:57;;;;;;;2.80;1.70;;;;;;;10.09;100.00;97222.94;5066641;28;20312;-79
2023/01/03 00:54:24;;;;;;;2.60;1.70;;;;;;;10.14;100.00;97220.44;5100594;28;20194;-78
2023/01/03 00:56:52;;;;;;;2.53;1.70;;;;;;;10.08;100.00;97213.16;5067700;28;20292;-78
2023/01/03 00:59:21;;;;;;;4.07;1.57;;;;;;;10.13;100.00;97225.00;5072029;28;20196;-78
2023/01/03 01:01:49;;;;;;;3.53;1.73;;;;;;;10.15;100.00;97235.59;5070776;28;20293;-78
2023/01/03 01:04:20;;;;;;;2.63;1.70;;;;;;;10.17;100.00;97225.44;5062296;28;20216;-78
2023/01/03 01:06:50;;;;;;;2.47;1.73;;;;;;;10.18;100.00;97217.16;5068380;28;20210;-78
2023/01/03 01:09:20;;;;;;;4.30;1.80;;;;;;;10.17;100.00;97214.63;5059322;28;20221;-78
2023/01/03 01:11:47;;;;;;;3.37;2.00;;;;;;;10.11;100.00;97210.06;5101477;28;20226;-78
2023/01/03 01:14:21;;;;;;;2.93;1.77;;;;;;;10.20;100.00;97225.06;5068706;28;20347;-79
2023/01/03 01:16:50;;;;;;;4.80;1.80;;;;;;;10.21;100.00;97229.41;5063236;28;20201;-79
2023/01/03 01:19:20;;;;;;;2.67;1.80;;;;;;;10.18;100.00;97238.75;5062003;28;20210;-79
2023/01/03 01:21:47;;;;;;;2.00;1.80;;;;;;;10.10;100.00;97228.13;5065656;28;20210;-78
2023/01/03 01:24:15;;;;;;;3.90;1.87;;;;;;;10.11;100.00;97243.28;5063351;28;20195;-78
2023/01/03 01:26:42;;;;;;;4.30;1.80;;;;;;;10.10;100.00;97248.88;5096441;28;20263;-78
2023/01/03 01:29:11;;;;;;;2.10;1.90;;;;;;;10.06;100.00;97240.34;5062599;28;20229;-79
2023/01/03 01:31:39;;;;;;;4.10;2.00;;;;;;;10.03;100.00;97239.94;5056349;28;20259;-78
2023/01/03 01:34:06;;;;;;;3.40;1.93;;;;;;;10.15;100.00;97258.00;5063843;28;20213;-78
2023/01/03 01:36:38;;;;;;;2.40;1.83;;;;;;;10.22;100.00;97258.06;5099647;28;20202;-78
2023/01/03 01:39:07;;;;;;;3.80;2.00;;;;;;;10.26;100.00;97250.38;5054616;28;20278;-79
2023/01/03 01:44:51;;;;;;;5.00;1.90;;;;;;;10.30;100.00;97252.44;5102704;28;20197;-78
2023/01/03 01:47:27;;;;;;;4.70;2.00;;;;;;;10.28;100.00;97237.53;5104663;28;20208;-78
2023/01/03 01:50:01;;;;;;;4.77;1.90;;;;;;;10.24;100.00;97247.88;5060512;28;20208;-78
2023/01/03 01:52:32;;;;;;;3.23;1.83;;;;;;;10.20;100.00;97246.66;5062743;28;20239;-78
2023/01/03 01:55:06;;;;;;;3.37;1.90;;;;;;;10.22;100.00;97245.38;5066544;28;20200;-78
2023/01/03 01:57:37;;;;;;;4.60;1.83;;;;;;;10.23;100.00;97251.63;5071079;28;20205;-78
2023/01/03 02:00:06;;;;;;;3.30;1.80;;;;;;;10.24;100.00;97243.31;5092242;28;20213;-78
2023/01/03 02:02:33;;;;;;;3.17;1.67;;;;;;;10.22;100.00;97252.66;5062414;28;20229;-78
2023/01/03 02:05:06;;;;;;;3.20;1.90;;;;;;;10.26;100.00;97251.22;5074135;28;20205;-78
2023/01/03 02:07:36;;;;;;;2.37;1.73;;;;;;;10.31;100.00;97254.13;5070194;28;20216;-78
2023/01/03 02:10:05;;;;;;;2.30;1.63;;;;;;;10.30;100.00;97249.75;5079212;28;20308;-78
2023/01/03 02:15:35;;;;;;;1.90;1.70;;;;;;;10.34;100.00;97248.31;5058236;28;20206;-78
2023/01/03 02:18:15;;;;;;;3.87;1.53;;;;;;;10.37;100.00;97249.78;5104838;28;20268;-78
2023/01/03 02:21:30;;;;;;;2.07;1.70;;;;;;;10.37;100.00;97258.72;5087639;28;20260;-78
2023/01/03 02:24:35;;;;;;;2.57;1.90;;;;;;;10.38;100.00;97249.53;5057490;28;20224;-79
2023/01/03 02:27:18;;;;;;;4.03;2.20;;;;;;;10.37;100.00;97255.19;5075588;28;20239;-78
2023/01/03 02:30:18;;;;;;;2.63;1.60;;;;;;;10.33;100.00;97249.34;5067390;28;20217;-78
2023/01/03 02:32:53;;;;;;;2.23;1.23;;;;;;;10.29;100.00;97247.28;5064802;28;20213;-78
2023/01/03 02:35:29;;;;;;;2.57;1.27;;;;;;;10.29;100.00;97241.88;5067873;28;20228;-78
2023/01/03 02:38:03;;;;;;;1.70;1.10;;;;;;;10.33;100.00;97245.81;5099907;28;20205;-78
2023/01/03 02:40:37;;;;;;;3.40;1.10;;;;;;;10.31;100.00;97242.47;5098680;28;20202;-78
2023/01/03 02:43:08;;;;;;;1.23;1.10;;;;;;;10.28;100.00;97246.44;5066089;28;20198;-78
2023/01/03 02:45:51;;;;;;;3.30;1.40;;;;;;;10.27;100.00;97236.69;5070245;28;20255;-78
2023/01/03 02:48:31;;;;;;;1.57;1.20;;;;;;;10.32;100.00;97239.59;5083525;28;20308;-78
2023/01/03 02:51:03;;;;;;;1.47;1.07;;;;;;;10.31;100.00;97237.91;5098788;28;20212;-78
2023/01/03 02:53:36;;;;;;;2.10;1.40;;;;;;;10.28;100.00;97230.25;5103269;28;20198;-78
2023/01/03 02:56:09;;;;;;;1.27;1.03;;;;;;;10.27;100.00;97225.88;5066757;28;20209;-78
2023/01/03 02:58:39;;;;;;;2.07;1.03;;;;;;;10.28;100.00;97227.56;5067603;28;20293;-78
2023/01/03 03:01:10;;;;;;;1.70;1.10;;;;;;;10.28;100.00;97221.31;5070527;28;20202;-79
2023/01/03 03:03:40;;;;;;;1.20;1.00;;;;;;;10.23;100.00;97224.63;5067350;28;20210;-79
2023/01/03 03:06:13;;;;;;;1.30;1.00;;;;;;;10.21;100.00;97222.13;5069227;28;20251;-79
2023/01/03 03:08:40;;;;;;;2.07;1.63;;;;;;;10.23;100.00;97225.47;5091314;28;20316;-78
2023/01/03 03:13:58;;;;;;;3.00;1.10;;;;;;;10.32;100.00;97223.38;5067047;28;20289;-78
2023/01/03 03:25:16;;;;;;;2.07;1.20;;;;;;;10.31;100.00;97221.72;5092343;28;20208;-78
2023/01/03 03:30:34;;;;;;;2.93;1.10;;;;;;;10.21;100.00;97215.91;5068205;28;20224;-78
2023/01/03 03:33:05;;;;;;;1.20;1.00;;;;;;;10.15;100.00;97219.41;5068585;28;20193;-79
2023/01/03 03:35:41;;;;;;;1.13;1.00;;;;;;;10.14;100.00;97215.03;5070455;28;20292;-78
2023/01/03 03:38:13;;;;;;;1.67;1.20;;;;;;;10.15;100.00;97214.00;5102297;28;20221;-78
2023/01/03 03:46:38;;;;;;;2.37;0.97;;;;;;;10.22;100.00;97213.00;5065763;28;20264;-78
2023/01/03 03:51:57;;;;;;;2.03;1.30;;;;;;;10.18;100.00;97216.34;5069516;28;20194;-79
2023/01/03 03:54:26;;;;;;;2.67;1.50;;;;;;;10.15;100.00;97211.31;5066255;28;20205;-79
2023/01/03 03:57:02;;;;;;;1.20;1.10;;;;;;;10.15;100.00;97214.00;5063985;28;20209;-79
2023/01/03 03:59:32;;;;;;;1.13;1.03;;;;;;;10.16;100.00;97210.28;5067198;28;20201;-78
2023/01/03 04:02:03;;;;;;;2.07;1.10;;;;;;;10.15;100.00;97214.00;5066226;28;20213;-78
2023/01/03 04:04:35;;;;;;;3.23;1.30;;;;;;;10.16;100.00;97215.66;5065276;28;20201;-79
2023/01/03 04:07:04;;;;;;;3.53;1.30;;;;;;;10.13;100.00;97214.19;5063475;28;20201;-79
2023/01/03 04:09:31;;;;;;;1.27;1.10;;;;;;;10.09;100.00;97212.13;5057728;28;20268;-78
2023/01/03 04:11:59;;;;;;;2.50;1.30;;;;;;;10.06;100.00;97223.34;5100640;28;20229;-78
2023/01/03 04:14:26;;;;;;;1.70;1.53;;;;;;;10.05;100.00;97221.66;5064246;28;20247;-78
2023/01/03 04:16:53;;;;;;;2.60;1.50;;;;;;;10.04;100.00;97228.09;5059022;28;20210;-78
2023/01/03 04:19:20;;;;;;;2.70;1.33;;;;;;;10.00;100.00;97226.84;5062378;28;20212;-78
2023/01/03 04:21:47;;;;;;;3.17;1.90;;;;;;;9.99;100.00;97227.88;5067371;28;20239;-78
2023/01/03 04:24:15;;;;;;;2.37;1.67;;;;;;;10.01;100.00;97225.81;5065836;28;20201;-78
2023/01/03 04:26:42;;;;;;;3.27;1.80;;;;;;;10.02;100.00;97222.09;5067140;28;20204;-78
2023/01/03 04:29:09;;;;;;;3.03;1.57;;;;;;;10.04;100.00;97226.22;5095373;28;20217;-79
2023/01/03 04:31:37;;;;;;;3.50;1.40;;;;;;;10.01;100.00;97217.72;5077173;28;20296;-78
2023/01/03 04:34:04;;;;;;;1.60;1.40;;;;;;;9.92;100.00;97222.50;5082241;28;20205;-78
2023/01/03 04:36:31;;;;;;;3.00;1.50;;;;;;;9.87;100.00;97220.38;5065448;28;20205;-78
2023/01/03 04:38:57;;;;;;;2.47;1.43;;;;;;;9.85;100.00;97222.47;5054534;28;20194;-79
2023/01/03 04:41:26;;;;;;;1.77;1.20;;;;;;;9.81;100.00;97215.81;5063028;28;20282;-78
2023/01/03 04:44:01;;;;;;;1.87;1.60;;;;;;;9.90;100.00;97218.31;5062886;28;20210;-79
2023/01/03 04:46:29;;;;;;;2.30;1.33;;;;;;;9.93;100.00;97223.31;5090364;28;20290;-78
2023/01/03 04:48:56;;;;;;;1.73;1.40;;;;;;;9.94;100.00;97225.00;5067355;28;20209;-78
2023/01/03 04:51:24;;;;;;;2.53;1.20;;;;;;;9.95;100.00;97223.97;5070289;28;20197;-78
2023/01/03 04:53:51;;;;;;;2.33;1.50;;;;;;;9.92;100.00;97221.66;5067700;28;20201;-79
2023/01/03 04:56:23;;;;;;;3.20;1.10;;;;;;;9.93;100.00;97224.16;5067140;28;20221;-78
2023/01/03 04:58:51;;;;;;;1.60;1.40;;;;;;;9.88;100.00;97221.22;5065293;28;20224;-78
2023/01/03 05:01:18;;;;;;;2.23;1.30;;;;;;;9.90;100.00;97234.50;5059867;28;20212;-78
2023/01/03 05:03:45;;;;;;;1.70;1.40;;;;;;;9.92;100.00;97243.25;5064595;28;20213;-78
2023/01/03 05:06:13;;;;;;;2.20;1.60;;;;;;;9.89;100.00;97236.38;5094534;28;20205;-78
2023/01/03 05:08:40;;;;;;;2.77;1.40;;;;;;;9.82;100.00;97228.28;5065938;28;20218;-78
2023/01/03 05:11:08;;;;;;;1.43;1.30;;;;;;;9.82;100.00;97222.88;5098431;28;20232;-78
2023/01/03 05:13:35;;;;;;;4.73;1.63;;;;;;;9.83;100.00;97238.03;5067261;28;20272;-78
2023/01/03 05:16:09;;;;;;;2.57;1.70;;;;;;;9.76;100.00;97239.88;5066657;28;20202;-78
2023/01/03 05:18:36;;;;;;;2.73;2.00;;;;;;;9.65;100.00;97236.94;5088109;28;20241;-78
2023/01/03 05:26:40;;;;;;;2.30;1.70;;;;;;;9.62;100.00;97246.25;5059992;28;20202;-78
2023/01/03 05:29:08;;;;;;;3.20;1.93;;;;;;;9.65;100.00;97253.97;5066503;28;20233;-78
2023/01/03 05:31:37;;;;;;;2.40;1.53;;;;;;;9.62;100.00;97240.88;5061121;28;20214;-78
2023/01/03 05:34:04;;;;;;;5.43;2.23;;;;;;;9.60;100.00;97239.44;5064967;28;20208;-78
2023/01/03 05:36:31;;;;;;;1.97;1.50;;;;;;;9.64;100.00;97252.28;5063120;28;20190;-78
2023/01/03 05:38:58;;;;;;;3.23;1.60;;;;;;;9.61;100.00;97258.06;5066732;28;20269;-79
2023/01/03 05:44:10;;;;;;;3.50;1.60;;;;;;;9.66;100.00;97261.00;5067109;28;20205;-78
2023/01/03 05:46:38;;;;;;;1.90;1.50;;;;;;;9.66;100.00;97263.72;5062343;28;20259;-78
2023/01/03 05:49:05;;;;;;;2.87;1.83;;;;;;;9.66;100.00;97260.19;5101964;28;20235;-78
2023/01/03 05:51:32;;;;;;;4.50;1.60;;;;;;;9.65;100.00;97263.91;5076407;28;20196;-78
2023/01/03 05:54:00;;;;;;;2.90;1.80;;;;;;;9.68;100.00;97264.34;5106996;28;20293;-78
2023/01/03 05:56:27;;;;;;;2.40;2.00;;;;;;;9.61;100.00;97257.28;5061798;28;20212;-78
2023/01/03 05:58:55;;;;;;;3.83;2.10;;;;;;;9.67;100.00;97267.25;5060426;28;20190;-78
2023/01/03 06:01:25;;;;;;;2.90;1.70;;;;;;;9.69;100.00;97267.88;5067877;28;20197;-78
2023/01/03 06:03:53;;;;;;;2.63;1.80;;;;;;;9.65;100.00;97259.34;5065512;28;20212;-78
2023/01/03 06:06:20;;;;;;;4.83;1.90;;;;;;;9.73;100.00;97272.66;5070699;28;20213;-78
2023/01/03 06:08:47;;;;;;;3.57;2.00;;;;;;;9.74;100.00;97279.72;5096987;28;20205;-78
2023/01/03 06:11:16;;;;;;;2.47;1.83;;;;;;;9.71;100.00;97276.56;5065898;28;20221;-78
2023/01/03 06:13:43;;;;;;;5.63;2.40;;;;;;;9.71;100.00;97280.09;5099357;28;20229;-78
2023/01/03 06:19:02;;;;;;;4.40;1.90;;;;;;;9.77;100.00;97283.88;5074479;28;20267;-78
2023/01/03 06:21:29;;;;;;;4.57;2.10;;;;;;;9.74;100.00;97287.81;5070069;28;20259;-78
2023/01/03 06:23:56;;;;;;;4.03;2.20;;;;;;;9.70;100.00;97289.22;5062610;28;20261;-78
2023/01/03 06:26:26;;;;;;;2.63;2.03;;;;;;;9.69;100.00;97292.97;5068499;28;20296;-78
2023/01/03 06:28:53;;;;;;;3.23;2.00;;;;;;;9.70;100.00;97293.78;5064162;28;20305;-78
2023/01/03 06:31:20;;;;;;;5.90;2.37;;;;;;;9.74;100.00;97305.84;5066752;28;20208;-79
2023/01/03 06:33:47;;;;;;;4.83;2.47;;;;;;;9.71;100.00;97306.25;5065766;28;20293;-78
2023/01/03 06:36:18;;;;;;;4.03;2.23;;;;;;;9.72;100.00;97314.13;5054361;28;20290;-78
2023/01/03 06:38:45;;;;;;;3.30;2.20;;;;;;;10.05;100.00;97316.09;5099475;28;20204;-78
2023/01/03 06:41:13;;;;;;;2.77;2.00;;;;;;;10.13;100.00;97315.94;5066645;28;20205;-78
2023/01/03 06:43:40;;;;;;;3.80;2.00;;;;;;;10.14;100.00;97320.28;5058394;28;20197;-78
2023/01/03 06:54:24;;;;;;;3.50;2.30;;;;;;;9.67;100.00;97332.78;5081467;28;20206;-78
2023/01/03 06:56:52;;;;;;;2.97;2.03;;;;;;;9.59;100.00;97335.66;5097215;28;20217;-78
2023/01/03 06:59:19;;;;;;;3.57;2.30;;;;;;;9.56;100.00;97325.28;5062932;28;20258;-78
2023/01/03 07:01:48;;;;;;;7.23;2.50;;;;;;;9.55;100.00;97336.25;5068474;28;20300;-78
2023/01/03 07:04:15;;;;;;;4.50;2.50;;;;;;;9.50;100.00;97326.06;5058545;28;20220;-79
2023/01/03 07:06:44;;;;;;;4.77;2.93;;;;;;;9.45;100.00;97328.53;5067163;28;20205;-78
2023/01/03 07:09:12;;;;;;;3.70;2.23;;;;;;;9.47;100.00;97343.47;5063987;28;20265;-79
2023/01/03 07:11:40;;;;;;;3.37;2.50;;;;;;;9.48;100.00;97341.63;5064729;28;20308;-78
2023/01/03 07:14:08;;;;;;;4.10;2.20;;;;;;;9.45;100.00;97339.31;5069926;28;20210;-78
2023/01/03 07:16:39;;;;;;;2.90;2.10;;;;;;;9.47;100.00;97345.34;5064922;28;20201;-79
2023/01/03 07:19:12;;;;;;;3.03;2.17;;;;;;;9.46;100.00;97347.19;5089856;28;20233;-79
2023/01/03 07:21:40;;;;;;;4.33;2.17;;;;;;;9.44;100.00;97354.66;5071799;28;20204;-78
2023/01/03 07:24:12;;;;;;;3.37;2.47;;;;;;;9.44;100.00;97348.44;5058658;28;20217;-78
2023/01/03 07:26:39;;;;;;;3.37;2.40;;;;;;;9.41;100.00;97344.28;5062446;28;20284;-79
2023/01/03 07:29:08;;;;;;;3.97;2.70;;;;;;;9.38;100.00;97349.22;5067519;28;20198;-79
2023/01/03 07:31:38;;;;;;;3.83;2.80;;;;;;;9.36;100.00;97351.28;5064224;28;20233;-79
2023/01/03 07:34:05;;;;;;;3.73;2.47;;;;;;;9.38;100.00;97354.59;5064092;28;20204;-79
2023/01/03 07:36:33;;;;;;;4.53;2.83;;;;;;;9.38;100.00;97354.59;5103722;28;20214;-79
2023/01/03 07:38:59;;;;;;;5.43;2.90;;;;;;;9.36;100.00;97356.66;5066440;28;20205;-78
2023/01/03 07:44:09;;;;;;;3.77;2.67;;;;;;;9.34;100.00;97356.06;5063252;28;20214;-78
2023/01/03 07:46:36;;;;;;;5.87;3.07;;;;;;;9.26;100.00;97348.13;5096338;28;20202;-79
2023/01/03 07:49:03;;;;;;;7.07;3.83;;;;;;;9.24;100.00;97350.19;5063949;28;20212;-79
2023/01/03 07:51:30;;;;;;;4.60;3.63;;;;;;;9.23;100.00;97345.81;5062201;28;20198;-79
2023/01/03 07:53:57;;;;;;;6.47;2.63;;;;;;;9.26;100.00;97356.22;5062704;28;20205;-79
2023/01/03 07:56:24;;;;;;;3.63;2.83;;;;;;;9.29;100.00;97355.78;5066033;28;20297;-78
2023/01/03 07:58:53;;;;;;;3.60;3.20;;;;;;;9.29;100.00;97353.09;5066415;28;20206;-79
2023/01/03 08:01:22;;;;;;;4.73;3.23;;;;;;;9.24;100.00;97360.97;5099378;28;20482;-79
2023/01/03 08:03:49;;;;;;;3.60;3.00;;;;;;;9.21;100.00;97356.78;5069612;28;20205;-79
2023/01/03 08:06:19;;;;;;;7.00;3.17;;;;;;;9.21;100.00;97361.34;5070452;28;20201;-78
2023/01/03 08:13:16;;;;;;;3.60;3.23;;;;;;;9.21;100.00;97372.13;5068195;28;20197;-78
2023/01/03 08:14:21;;;;;;;3.40;3.03;;;;;;;9.15;100.00;97357.59;5060262;28;20289;-79
2023/01/03 08:16:47;;;;;;;6.03;3.10;;;;;;;9.16;100.00;97361.09;5063251;28;20205;-79
2023/01/03 08:19:15;;;;;;;6.93;3.53;;;;;;;9.16;100.00;97366.50;5065773;28;20202;-78
2023/01/03 08:21:41;;;;;;;6.03;3.40;;;;;;;9.18;100.00;97370.66;5064558;28;20217;-79
2023/01/03 08:24:08;;;;;;;6.93;3.07;;;;;;;9.19;100.00;97366.09;5065424;28;20206;-78
2023/01/03 08:26:35;;;;;;;5.73;3.10;;;;;;;9.16;100.00;97361.09;5062634;28;20201;-79
2023/01/03 08:29:02;;;;;;;6.57;3.40;;;;;;;9.19;100.00;97363.38;5098066;28;20216;-79
2023/01/03 08:31:34;;;;;;;5.03;3.13;;;;;;;9.21;100.00;97380.19;5062926;28;20228;-79
2023/01/03 08:34:03;;;;;;;5.80;3.37;;;;;;;9.22;100.00;97385.41;5102713;28;20259;-79
2023/01/03 08:36:35;;;;;;;4.43;3.37;;;;;;;9.25;100.00;97386.88;5068725;28;20197;-79
2023/01/03 08:39:05;;;;;;;4.50;3.40;;;;;;;9.25;100.00;97376.94;5064426;28;20210;-78
2023/01/03 08:41:38;;;;;;;6.50;3.43;;;;;;;9.28;100.00;97389.16;5059610;28;20205;-78
2023/01/03 08:44:08;;;;;;;6.67;3.43;;;;;;;9.28;100.00;97386.47;5078551;28;20241;-78
2023/01/03 08:46:39;;;;;;;4.30;3.50;;;;;;;9.30;100.00;97384.41;5066224;28;20323;-79
2023/01/03 08:49:11;;;;;;;5.63;4.17;;;;;;;9.39;100.00;97394.03;5093309;28;20212;-78
2023/01/03 08:51:39;;;;;;;7.23;4.57;;;;;;;9.35;100.00;97398.16;5068303;28;20213;-79
2023/01/03 08:54:08;;;;;;;5.73;4.20;;;;;;;9.28;100.00;97402.63;5064139;28;20202;-79
2023/01/03 08:56:35;;;;;;;6.53;4.53;;;;;;;9.27;100.00;97409.09;5066091;28;20250;-78
2023/01/03 08:59:02;;;;;;;4.80;4.30;;;;;;;9.26;100.00;97413.66;5068152;28;20206;-79
2023/01/03 09:01:29;;;;;;;6.53;4.50;;;;;;;9.21;100.00;97417.94;5062915;28;20208;-78
2023/01/03 09:03:57;;;;;;;6.13;4.93;;;;;;;9.22;100.00;97415.03;5062660;28;20197;-79
2023/01/03 09:06:25;;;;;;;6.90;4.60;;;;;;;9.20;100.00;97411.72;5062259;28;20209;-79
2023/01/03 09:08:52;;;;;;;6.87;5.37;;;;;;;9.25;100.00;97432.69;5067669;28;20209;-78
2023/01/03 09:11:19;;;;;;;7.33;4.80;;;;;;;9.26;100.00;97431.69;5065913;28;20221;-78
2023/01/03 09:13:45;;;;;;;7.57;4.70;;;;;;;9.26;100.00;97431.69;5065271;28;20263;-79
2023/01/03 09:16:15;;;;;;;8.37;6.00;;;;;;;9.26;100.00;97431.69;5062966;28;20216;-79
2023/01/03 09:18:42;;;;;;;8.27;5.90;;;;;;;9.26;100.00;97427.13;5068289;28;20246;-79
2023/01/03 09:21:10;;;;;;;6.97;4.87;;;;;;;9.25;100.00;97436.22;5071012;28;20247;-79
2023/01/03 09:23:38;;;;;;;8.07;6.33;;;;;;;9.22;100.00;97425.81;5071885;28;20197;-79
2023/01/03 09:26:08;;;;;;;8.73;6.17;;;;;;;9.21;100.00;97426.84;5102253;28;20217;-79
2023/01/03 09:28:35;;;;;;;10.10;6.30;;;;;;;9.22;100.00;97431.22;5095501;28;20224;-79
2023/01/03 09:31:02;;;;;;;8.33;6.03;;;;;;;9.22;100.00;97430.38;5072983;28;20213;-79
2023/01/03 09:33:29;;;;;;;8.13;5.93;;;;;;;9.21;100.00;97420.63;5070789;28;20205;-79
2023/01/03 09:35:56;;;;;;;9.37;5.87;;;;;;;9.20;100.00;97421.66;5071195;28;20198;-78
2023/01/03 09:38:24;;;;;;;11.97;6.03;;;;;;;9.16;100.00;97428.47;5071410;28;20243;-79
2023/01/03 09:40:59;;;;;;;7.70;6.00;;;;;;;9.19;100.00;97430.75;5066276;28;20205;-79
2023/01/03 09:43:33;;;;;;;10.30;6.00;;;;;;;9.21;100.00;97439.50;5068641;28;20190;-79
2023/01/03 09:46:01;;;;;;;7.87;5.20;;;;;;;9.25;100.00;97440.78;5068341;28;20232;-79
2023/01/03 09:48:33;;;;;;;7.10;5.47;;;;;;;9.36;100.00;97438.38;5069322;28;20285;-79
2023/01/03 09:51:01;;;;;;;6.77;5.40;;;;;;;9.36;100.00;97437.53;5098032;28;20225;-78
2023/01/03 10:05:21;;;;;;;6.80;5.43;;;;;;;9.35;100.00;97458.28;5089815;28;20202;-79
2023/01/03 10:08:01;;;;;;;6.40;5.30;;;;;;;9.36;100.00;97449.16;5066990;28;20234;-78
2023/01/03 10:10:37;;;;;;;7.23;5.33;;;;;;;9.39;100.00;97447.94;5102678;28;20222;-79
2023/01/03 10:13:16;;;;;;;8.13;5.80;;;;;;;9.37;100.00;97449.97;5104078;28;20216;-79
2023/01/03 10:15:50;;;;;;;5.40;4.57;;;;;;;9.30;100.00;97443.72;5056597;28;20217;-79
2023/01/03 10:18:34;;;;;;;5.87;5.07;;;;;;;9.26;100.00;97437.06;5065519;28;20225;-79
2023/01/03 10:21:08;;;;;;;6.57;5.40;;;;;;;9.13;100.00;97423.47;5062127;28;20197;-79
2023/01/03 10:23:35;;;;;;;8.07;6.17;;;;;;;9.20;100.00;97435.13;5067056;28;20237;-80
2023/01/03 10:26:10;;;;;;;8.00;6.10;;;;;;;9.25;100.00;97440.78;5055987;28;20212;-80
2023/01/03 10:28:39;;;;;;;7.53;5.60;;;;;;;9.24;100.00;97433.72;5066127;28;20259;-80
2023/01/03 10:31:22;;;;;;;7.20;5.77;;;;;;;9.22;100.00;97431.22;5063752;28;20275;-80
2023/01/03 10:33:50;;;;;;;7.20;5.43;;;;;;;9.20;100.00;97432.44;5067732;28;20201;-80
2023/01/03 10:36:19;;;;;;;6.67;5.53;;;;;;;9.20;100.00;97437.81;5067588;28;20206;-80
2023/01/03 10:38:46;;;;;;;6.57;5.00;;;;;;;9.21;100.00;97426.03;5067532;28;20216;-80
2023/01/03 10:41:19;;;;;;;5.67;5.00;;;;;;;9.29;100.00;97420.47;5063776;28;20225;-80
2023/01/03 10:43:57;;;;;;;6.77;5.30;;;;;;;9.38;100.00;97422.84;5068848;28;20232;-79
2023/01/03 10:46:26;;;;;;;6.80;4.90;;;;;;;9.40;100.00;97433.44;5064097;28;20288;-80
2023/01/03 10:48:56;;;;;;;5.90;4.97;;;;;;;9.36;100.00;97437.53;5068016;28;20197;-79
2023/01/03 10:51:28;;;;;;;5.50;4.37;;;;;;;9.27;100.00;97442.22;5068061;28;20340;-79
2023/01/03 10:53:57;;;;;;;5.83;4.17;;;;;;;9.26;100.00;97435.22;5096156;28;20255;-79
2023/01/03 10:56:27;;;;;;;6.17;4.33;;;;;;;9.25;100.00;97438.09;5071632;28;20230;-79
2023/01/03 10:59:12;;;;;;;6.33;4.30;;;;;;;9.29;100.00;97426.72;5099932;28;20236;-79
2023/01/03 11:01:39;;;;;;;5.70;4.43;;;;;;;9.38;100.00;97436.31;5065053;28;20251;-79
2023/01/03 11:04:13;;;;;;;4.63;3.83;;;;;;;9.36;100.00;97432.13;5070296;28;20208;-79
2023/01/03 11:06:56;;;;;;;6.30;4.47;;;;;;;9.32;100.00;97436.28;5100701;28;20232;-79
2023/01/03 11:09:23;;;;;;;5.23;4.03;;;;;;;9.38;100.00;97430.09;5069145;28;20205;-79
2023/01/03 11:11:59;;;;;;;6.00;4.10;;;;;;;9.42;100.00;97431.38;5068363;28;20228;-80
2023/01/03 11:14:28;;;;;;;4.97;3.50;;;;;;;9.45;100.00;97434.50;5064822;28;20209;-80
2023/01/03 11:16:58;;;;;;;5.47;3.90;;;;;;;9.52;100.00;97426.47;5067671;28;20205;-80
2023/01/03 11:19:28;;;;;;;5.13;3.93;;;;;;;9.49;100.00;97432.25;5071104;28;20267;-80
2023/01/03 11:22:04;;;;;;;4.07;3.67;;;;;;;9.36;100.00;97411.41;5067979;28;20205;-80
2023/01/03 11:24:52;;;;;;;4.50;3.00;;;;;;;9.48;100.00;97435.97;5066823;28;20204;-79
2023/01/03 11:27:43;;;;;;;5.57;3.60;;;;;;;9.39;100.00;97432.59;5068838;28;20233;-80
2023/01/03 11:30:25;;;;;;;6.33;3.50;;;;;;;9.45;100.00;97434.50;5065244;28;20216;-80
2023/01/03 11:33:16;;;;;;;5.57;3.93;;;;;;;9.48;100.00;97435.97;5067497;28;20235;-79
2023/01/03 11:35:54;;;;;;;4.57;3.73;;;;;;;9.50;100.00;97425.84;5080161;28;20297;-79
2023/01/03 11:38:32;;;;;;;4.37;3.53;;;;;;;9.41;100.00;97418.94;5091295;28;20269;-79
2023/01/03 11:41:10;;;;;;;5.53;4.20;;;;;;;9.44;100.00;97424.72;5064418;28;20206;-79
2023/01/03 11:43:55;;;;;;;5.67;3.80;;;;;;;9.47;100.00;97418.13;5061766;28;20198;-79
2023/01/03 11:46:42;;;;;;;4.67;3.60;;;;;;;9.56;100.00;97422.34;5066207;28;20224;-79
2023/01/03 11:49:27;;;;;;;3.80;3.07;;;;;;;9.59;100.00;97413.88;5083363;28;20228;-80
2023/01/03 11:52:13;;;;;;;3.53;3.10;;;;;;;9.67;100.00;97423.66;5102778;28;20224;-80
2023/01/03 11:55:00;;;;;;;3.70;3.27;;;;;;;9.78;100.00;97412.31;5069358;28;20255;-80
2023/01/03 11:57:37;;;;;;;4.13;2.90;;;;;;;9.76;100.00;97409.81;5068516;28;20220;-79
2023/01/03 12:00:15;;;;;;;5.00;3.07;;;;;;;9.76;100.00;97408.97;5102719;28;20213;-79
2023/01/03 12:03:07;;;;;;;3.30;2.83;;;;;;;9.84;100.00;97404.25;5083516;28;20205;-79
2023/01/03 12:05:47;;;;;;;3.30;3.00;;;;;;;9.81;100.00;97410.03;5074335;28;20209;-79
2023/01/03 12:08:45;;;;;;;3.33;3.03;;;;;;;9.79;100.00;97406.69;5047587;28;20210;-79
2023/01/03 12:11:34;;;;;;;3.37;2.80;;;;;;;9.74;100.00;97403.78;5073921;28;20281;-79
2023/01/03 12:14:09;;;;;;;5.40;3.20;;;;;;;9.75;100.00;97410.00;5040826;28;20217;-79
2023/01/03 12:16:42;;;;;;;3.43;2.70;;;;;;;9.79;100.00;97405.88;5058390;28;20205;-79
2023/01/03 12:19:24;;;;;;;5.63;2.80;;;;;;;9.78;100.00;97410.44;5070711;28;20237;-79
2023/01/03 12:21:53;;;;;;;3.17;2.87;;;;;;;9.71;100.00;97406.88;5069045;28;20205;-79
2023/01/03 12:24:29;;;;;;;3.43;2.80;;;;;;;9.65;100.00;97390.66;5068456;28;20206;-79
2023/01/03 12:27:04;;;;;;;2.17;1.97;;;;;;;9.65;100.00;97398.75;5044222;28;20213;-79
2023/01/03 12:29:43;;;;;;;3.90;2.73;;;;;;;9.64;100.00;97395.22;5067430;28;20201;-80
2023/01/03 12:32:16;;;;;;;10.00;5.23;;;;;;;9.60;100.00;97391.25;5068441;28;20217;-79
2023/01/03 12:34:50;;;;;;;4.60;2.30;;;;;;;9.65;100.00;97399.56;5066214;28;20193;-80
2023/01/03 12:37:23;;;;;;;3.80;2.40;;;;;;;9.71;100.00;97390.69;5070140;28;20201;-80
2023/01/03 12:39:55;;;;;;;3.27;2.43;;;;;;;9.69;100.00;97400.84;5066745;28;20211;-80
2023/01/03 12:42:32;;;;;;;3.60;2.37;;;;;;;9.71;100.00;97404.16;5072806;28;20204;-80
2023/01/03 12:45:14;;;;;;;2.40;2.20;;;;;;;9.60;100.00;97396.66;5059858;28;20210;-80
2023/01/03 12:47:50;;;;;;;3.23;2.70;;;;;;;9.47;100.00;97392.00;5057177;28;20243;-80
2023/01/03 12:50:21;;;;;;;3.03;2.67;;;;;;;9.49;100.00;97399.91;5064938;28;20205;-79
2023/01/03 12:52:57;;;;;;;2.53;2.33;;;;;;;9.25;100.00;97397.66;5070496;28;20217;-79